Accueil
METAR-TAF:

METAR-TAF

Aéroports :

Koweït, Koweït

Aéroport international de Koweït

latitude: 29-13N, longitude: 047-59E, altitude: 55 m

Observation

Le bulletin a été fait il y a 1 heure et 6 minutes, à 12:00 UTC
Vent 7 kt de est/sud-est
Température 24°C
Humidité 50%
Pression 1015 hPa
Visibilité 10 km ou plus
Nuages fragmentés à une hauteur de 3000 ft

METAR: OKBK 261200Z 11007KT 9999 BKN030 24/13 Q1015 NOSIG

Heure: 16:06 (13:06 UTC)

Prévision

Le bulletin a été fait il y a 2 heures et 21 minutes, à 10:45 UTC
Prévision valable du 26 à 12 UTC au 27 à 18 UTC
Vent 3 kt de direction variable
Visibilité: 8000 m
Nuages épars à une hauteur de 4000 ft

TAF: OKBK 261045Z 2612/2718 VRB03KT 8000 SCT040

Observations et prévisions météorologiques de plus de 4000 aéroports (messages METAR et TAF).

Les stations disponibles sont représentées par des disques jaunes et rouges sur la carte.

Passer la souris dessus pour voir le nom de la station.

Cliquer dessus pour voir les observations et prévisions météorologiques.

Pour changer de carte: cliquez sur les boutons verts avec une croix noire pour zoomer, sur le bouton vert avec un tiret pour effectuer un zoom arrière, ou sur les flèches vertes pour les cartes adjacentes.


METAR-TAF: